Time;durP1;ratioP1;P1;durP2;ratioP2;P2;SDS_P1;SDS_P2;PMS_P1;PMS_P2;Temp;Humidity;BMP_temperature;BMP_pressure;BME280_temperature;BME280_humidity;BME280_pressure;Samples;Min_cycle;Max_cycle;Signal;HPM_P1;HPM_P2
2021/07/01 00:00:42;;;;;;;1.20;1.10;;;20.20;1.00;;;;;;5072546;28;20410;-56
2021/07/01 00:03:08;;;;;;;1.40;1.30;;;20.30;1.00;;;;;;5072646;28;20529;-57
2021/07/01 00:05:33;;;;;;;1.23;1.13;;;20.20;1.00;;;;;;5065068;28;20182;-57
2021/07/01 00:07:59;;;;;;;1.67;1.20;;;20.10;1.00;;;;;;5072240;28;20171;-57
2021/07/01 00:10:26;;;;;;;0.90;0.90;;;20.20;1.00;;;;;;5072296;28;20741;-56
2021/07/01 00:12:54;;;;;;;2.10;1.17;;;20.20;1.00;;;;;;5072292;28;20632;-58
2021/07/01 00:15:22;;;;;;;2.03;0.90;;;20.20;1.00;;;;;;5068320;28;20433;-56
2021/07/01 00:17:49;;;;;;;1.43;1.10;;;20.20;1.00;;;;;;5066978;28;20410;-58
2021/07/01 00:20:14;;;;;;;1.10;1.10;;;20.20;1.00;;;;;;5071705;28;20926;-57
2021/07/01 00:22:41;;;;;;;2.30;1.03;;;20.20;1.00;;;;;;5070344;28;20469;-58
2021/07/01 00:25:10;;;;;;;3.27;1.07;;;20.10;1.00;;;;;;5070288;28;20182;-57
2021/07/01 00:27:36;;;;;;;1.23;1.13;;;20.10;1.00;;;;;;5069682;28;20994;-56
2021/07/01 00:30:04;;;;;;;3.23;1.23;;;20.20;1.00;;;;;;5064608;28;20813;-58
2021/07/01 00:32:29;;;;;;;0.70;0.70;;;20.20;1.00;;;;;;5069059;28;20441;-58
2021/07/01 00:34:55;;;;;;;1.10;1.00;;;20.20;1.00;;;;;;5067889;28;20460;-57
2021/07/01 00:37:20;;;;;;;1.30;1.20;;;20.10;1.00;;;;;;5070466;28;20205;-59
2021/07/01 00:39:46;;;;;;;1.20;0.93;;;20.20;1.00;;;;;;5071278;28;20187;-58
2021/07/01 00:42:11;;;;;;;0.90;0.80;;;20.00;1.00;;;;;;5071035;28;20708;-55
2021/07/01 00:44:37;;;;;;;3.70;1.33;;;20.00;1.00;;;;;;5071204;28;20179;-59
2021/07/01 00:47:03;;;;;;;0.80;0.80;;;20.00;1.00;;;;;;5070715;28;20233;-57
2021/07/01 00:49:28;;;;;;;1.67;1.00;;;19.90;1.00;;;;;;5068185;28;20207;-57
2021/07/01 00:51:54;;;;;;;0.90;0.90;;;19.90;1.00;;;;;;5070805;28;20183;-57
2021/07/01 00:54:20;;;;;;;1.80;1.20;;;19.80;1.00;;;;;;5068683;28;20195;-56
2021/07/01 00:56:46;;;;;;;1.20;1.10;;;19.80;1.00;;;;;;5101765;28;20286;-56
2021/07/01 00:59:11;;;;;;;1.23;1.13;;;19.60;1.00;;;;;;5070061;28;20438;-56
2021/07/01 01:01:38;;;;;;;1.20;1.10;;;19.80;1.00;;;;;;5067165;28;20193;-57
2021/07/01 01:04:04;;;;;;;1.43;1.33;;;19.80;1.00;;;;;;5069507;28;20181;-57
2021/07/01 01:06:30;;;;;;;1.63;1.30;;;19.80;1.00;;;;;;5069586;28;20451;-58
2021/07/01 01:08:57;;;;;;;1.63;1.27;;;19.70;1.00;;;;;;5069924;28;20447;-56
2021/07/01 01:11:26;;;;;;;1.43;1.33;;;19.70;1.00;;;;;;5069427;28;20332;-57
2021/07/01 01:13:52;;;;;;;1.53;1.20;;;19.70;1.00;;;;;;5071200;28;20491;-57
2021/07/01 01:16:18;;;;;;;1.37;1.27;;;19.70;1.00;;;;;;5067433;28;20416;-56
2021/07/01 01:18:44;;;;;;;1.23;1.10;;;19.80;1.00;;;;;;5063095;28;20498;-57
2021/07/01 01:21:11;;;;;;;1.00;1.00;;;19.70;1.00;;;;;;5067848;28;20180;-56
2021/07/01 01:23:37;;;;;;;1.60;1.50;;;19.60;1.00;;;;;;5066476;28;20493;-56
2021/07/01 01:26:03;;;;;;;1.30;1.20;;;19.60;1.00;;;;;;5068146;28;21016;-57
2021/07/01 01:28:29;;;;;;;1.57;1.20;;;19.50;1.00;;;;;;5069252;28;20226;-57
2021/07/01 01:30:55;;;;;;;5.10;1.30;;;19.40;1.00;;;;;;5069284;28;20215;-56
2021/07/01 01:33:21;;;;;;;1.40;1.30;;;19.40;1.00;;;;;;5065550;28;20985;-60
2021/07/01 01:35:46;;;;;;;3.77;1.40;;;19.30;1.00;;;;;;5066450;28;20449;-58
2021/07/01 01:38:14;;;;;;;1.70;1.60;;;19.30;1.00;;;;;;5067435;28;20233;-57
2021/07/01 01:40:42;;;;;;;1.70;1.57;;;19.20;1.00;;;;;;5068221;28;20236;-59
2021/07/01 01:43:08;;;;;;;1.37;1.27;;;19.20;1.00;;;;;;5064137;28;20434;-58
2021/07/01 01:45:37;;;;;;;2.10;1.17;;;19.00;1.00;;;;;;5067255;28;20446;-56
2021/07/01 01:48:04;;;;;;;1.40;1.25;;;19.10;1.00;;;;;;5067002;28;20241;-56
2021/07/01 01:50:32;;;;;;;1.47;1.30;;;19.10;1.00;;;;;;5065149;28;20857;-59
2021/07/01 01:52:58;;;;;;;2.13;1.33;;;19.10;1.00;;;;;;5068000;28;20853;-58
2021/07/01 01:55:24;;;;;;;1.90;1.40;;;19.10;1.00;;;;;;5061361;28;20428;-58
2021/07/01 01:57:51;;;;;;;1.53;1.40;;;19.20;1.00;;;;;;5064683;28;20667;-56
2021/07/01 02:00:19;;;;;;;1.70;1.60;;;19.20;1.00;;;;;;5061597;28;20180;-58
2021/07/01 02:02:45;;;;;;;1.43;1.17;;;19.30;1.00;;;;;;5065919;28;20438;-56
2021/07/01 02:05:12;;;;;;;1.50;1.40;;;19.20;1.00;;;;;;5068679;28;20416;-59
2021/07/01 02:07:38;;;;;;;1.40;1.30;;;19.20;1.00;;;;;;5068337;28;20457;-57
2021/07/01 02:10:08;;;;;;;1.50;1.40;;;19.10;1.00;;;;;;5065446;28;20461;-57
2021/07/01 02:12:34;;;;;;;4.80;1.70;;;19.00;1.00;;;;;;5069472;28;20540;-57
2021/07/01 02:15:00;;;;;;;1.60;1.50;;;18.90;1.00;;;;;;5069612;28;20446;-57
2021/07/01 02:17:26;;;;;;;1.77;1.30;;;18.90;1.00;;;;;;5067078;28;20445;-56
2021/07/01 02:19:52;;;;;;;2.20;1.80;;;18.90;1.00;;;;;;5069797;28;20419;-57
2021/07/01 02:22:18;;;;;;;1.47;1.37;;;18.80;1.00;;;;;;5070240;28;20225;-57
2021/07/01 02:24:44;;;;;;;1.50;1.40;;;18.70;1.00;;;;;;5069675;28;20191;-57
2021/07/01 02:27:10;;;;;;;1.57;1.47;;;18.60;1.00;;;;;;5069959;28;20441;-55
2021/07/01 02:29:36;;;;;;;1.97;1.87;;;18.60;1.00;;;;;;5071217;28;20459;-56
2021/07/01 02:32:03;;;;;;;1.90;1.53;;;18.50;1.00;;;;;;5067755;28;20429;-59
2021/07/01 02:34:30;;;;;;;1.60;1.50;;;18.50;1.00;;;;;;5066488;28;20931;-57
2021/07/01 02:36:55;;;;;;;2.20;2.03;;;18.40;1.00;;;;;;5068826;28;20423;-58
2021/07/01 02:39:21;;;;;;;1.80;1.70;;;18.40;1.00;;;;;;5070289;28;20437;-57
2021/07/01 02:41:48;;;;;;;1.80;1.70;;;18.40;1.00;;;;;;5070183;28;20644;-56
2021/07/01 02:44:14;;;;;;;1.57;1.47;;;;;;;;;;5070083;28;20187;-57
2021/07/01 02:46:40;;;;;;;1.67;1.47;;;18.20;1.00;;;;;;5070810;28;20946;-57
2021/07/01 02:49:08;;;;;;;2.20;1.87;;;18.40;1.00;;;;;;5069268;28;20469;-56
2021/07/01 02:51:34;;;;;;;2.03;1.90;;;18.30;1.00;;;;;;5069613;28;20194;-58
2021/07/01 02:54:00;;;;;;;1.50;1.40;;;18.40;1.00;;;;;;5072638;28;20442;-58
2021/07/01 02:56:25;;;;;;;2.20;2.10;;;18.40;1.00;;;;;;5069847;28;20176;-57
2021/07/01 02:58:51;;;;;;;4.20;1.93;;;18.30;1.00;;;;;;5066611;28;20282;-57
2021/07/01 03:01:16;;;;;;;1.40;1.30;;;18.20;1.00;;;;;;5072878;28;20182;-57
2021/07/01 03:03:42;;;;;;;1.80;1.53;;;;;;;;;;5073919;28;20545;-58
2021/07/01 03:06:08;;;;;;;1.77;1.67;;;18.10;1.00;;;;;;5073270;28;20182;-57
2021/07/01 03:08:34;;;;;;;1.83;1.73;;;18.20;1.00;;;;;;5072157;28;20568;-58
2021/07/01 03:10:59;;;;;;;1.83;1.70;;;18.20;1.00;;;;;;5073239;28;20519;-57
2021/07/01 03:13:26;;;;;;;2.90;1.60;;;18.20;1.00;;;;;;5071106;28;20188;-57
2021/07/01 03:15:51;;;;;;;1.90;1.63;;;18.30;1.00;;;;;;5073276;28;20191;-57
2021/07/01 03:18:17;;;;;;;1.70;1.60;;;18.10;1.00;;;;;;5073329;28;20437;-57
2021/07/01 03:20:42;;;;;;;1.83;1.73;;;18.10;1.00;;;;;;5070724;28;20555;-56
2021/07/01 03:23:08;;;;;;;2.90;2.60;;;18.20;1.00;;;;;;5073149;28;20244;-57
2021/07/01 03:25:33;;;;;;;3.10;2.00;;;18.30;1.00;;;;;;5070778;28;20245;-57
2021/07/01 03:27:59;;;;;;;3.97;1.67;;;19.10;1.00;;;;;;5069880;28;20172;-58
2021/07/01 03:30:24;;;;;;;2.27;2.10;;;18.40;1.00;;;;;;5071046;28;20234;-57
2021/07/01 03:32:50;;;;;;;2.17;2.07;;;18.50;1.00;;;;;;5099416;28;20180;-57
2021/07/01 03:35:16;;;;;;;1.57;1.43;;;18.60;1.00;;;;;;5072960;28;20184;-56
2021/07/01 03:37:41;;;;;;;1.57;1.47;;;18.70;1.00;;;;;;5072614;28;20202;-57
2021/07/01 03:40:09;;;;;;;2.17;2.07;;;18.70;1.00;;;;;;5072480;28;20733;-57
2021/07/01 03:42:35;;;;;;;2.13;1.63;;;18.80;1.00;;;;;;5070834;28;20548;-57
2021/07/01 03:45:00;;;;;;;1.97;1.63;;;18.80;1.00;;;;;;5072115;28;20518;-56
2021/07/01 03:47:26;;;;;;;2.90;2.53;;;18.80;1.00;;;;;;5073071;28;20211;-57
2021/07/01 03:49:52;;;;;;;2.47;2.33;;;18.90;1.00;;;;;;5071341;28;20222;-57
2021/07/01 03:52:17;;;;;;;2.73;2.33;;;19.00;1.00;;;;;;5072391;28;20633;-59
2021/07/01 03:54:43;;;;;;;2.23;2.10;;;19.10;1.00;;;;;;5069649;28;20423;-59
2021/07/01 03:57:09;;;;;;;2.30;2.07;;;18.90;1.00;;;;;;5063000;28;20173;-57
2021/07/01 03:59:34;;;;;;;2.13;2.03;;;19.70;1.00;;;;;;5072249;28;20579;-56
2021/07/01 04:02:00;;;;;;;2.23;2.03;;;19.10;1.00;;;;;;5069630;28;20172;-57
2021/07/01 04:04:26;;;;;;;2.50;2.30;;;19.10;1.00;;;;;;5071048;28;20194;-57
2021/07/01 04:06:51;;;;;;;2.60;2.40;;;19.10;1.00;;;;;;5071993;28;20426;-56
2021/07/01 04:09:17;;;;;;;2.30;2.10;;;19.10;1.00;;;;;;5072118;28;20207;-57
2021/07/01 04:11:43;;;;;;;3.70;3.37;;;19.00;1.00;;;;;;5070967;28;20175;-58
2021/07/01 04:14:09;;;;;;;5.20;4.70;;;19.10;1.00;;;;;;5072245;28;20180;-58
2021/07/01 04:16:34;;;;;;;2.67;2.47;;;19.10;1.00;;;;;;5072128;28;20462;-58
2021/07/01 04:19:00;;;;;;;3.77;2.80;;;19.10;1.00;;;;;;5072471;28;20186;-58
2021/07/01 04:21:27;;;;;;;2.60;2.40;;;19.10;1.00;;;;;;5070624;28;20185;-58
2021/07/01 04:23:55;;;;;;;2.80;2.60;;;19.10;1.00;;;;;;5071842;28;20266;-57
2021/07/01 04:26:20;;;;;;;5.60;2.93;;;19.00;1.00;;;;;;5070460;28;20444;-58
2021/07/01 04:28:46;;;;;;;2.73;2.43;;;19.10;1.00;;;;;;5071487;28;20814;-58
2021/07/01 04:31:12;;;;;;;2.77;2.57;;;19.20;1.00;;;;;;5071770;28;20192;-57
2021/07/01 04:33:37;;;;;;;2.90;2.70;;;19.30;1.00;;;;;;5071190;28;20179;-58
2021/07/01 04:36:03;;;;;;;2.73;2.53;;;19.30;1.00;;;;;;5070949;28;20179;-58
2021/07/01 04:38:28;;;;;;;3.23;3.03;;;19.30;1.00;;;;;;5070448;28;20195;-57
2021/07/01 04:40:55;;;;;;;3.27;3.07;;;19.40;1.00;;;;;;5071685;28;20276;-58
2021/07/01 04:43:21;;;;;;;3.60;3.37;;;19.40;1.00;;;;;;5071742;28;20648;-57
2021/07/01 04:45:47;;;;;;;3.10;2.90;;;19.40;1.00;;;;;;5069848;28;20560;-59
2021/07/01 04:48:13;;;;;;;2.90;2.70;;;19.40;1.00;;;;;;5071596;28;20479;-57
2021/07/01 04:50:38;;;;;;;3.97;3.67;;;19.60;1.00;;;;;;5070208;28;20197;-57
2021/07/01 04:53:04;;;;;;;5.50;3.60;;;19.70;1.00;;;;;;5070373;28;20203;-56
2021/07/01 04:55:30;;;;;;;9.17;3.97;;;19.70;1.00;;;;;;5071523;28;20187;-58
2021/07/01 04:57:55;;;;;;;4.23;3.70;;;19.70;1.00;;;;;;5069998;28;20263;-57
2021/07/01 05:00:21;;;;;;;4.20;3.80;;;19.60;1.00;;;;;;5071765;28;20187;-56
2021/07/01 05:02:46;;;;;;;5.27;4.77;;;19.60;1.00;;;;;;5071376;28;20649;-56
2021/07/01 05:05:12;;;;;;;4.83;4.37;;;19.70;1.00;;;;;;5070888;28;20595;-57
2021/07/01 05:07:43;;;;;;;5.80;4.43;;;19.70;1.00;;;;;;5097585;28;20198;-56
2021/07/01 05:10:09;;;;;;;4.80;4.40;;;19.60;1.00;;;;;;5069323;28;20238;-58
2021/07/01 05:12:35;;;;;;;5.30;4.80;;;19.50;1.00;;;;;;5070946;28;20441;-57
2021/07/01 05:15:00;;;;;;;5.47;4.97;;;19.80;1.00;;;;;;5070894;28;20455;-57
2021/07/01 05:17:26;;;;;;;6.57;5.60;;;19.60;1.00;;;;;;5071051;28;20187;-58
2021/07/01 05:19:51;;;;;;;6.60;6.10;;;19.70;1.00;;;;;;5070696;28;20774;-60
2021/07/01 05:22:17;;;;;;;7.10;6.50;;;19.50;1.00;;;;;;5070325;28;20238;-58
2021/07/01 05:24:42;;;;;;;6.20;5.70;;;19.50;1.00;;;;;;5070607;28;20304;-58
2021/07/01 05:27:08;;;;;;;7.50;6.80;;;19.60;1.00;;;;;;5069300;28;20252;-58
2021/07/01 05:29:34;;;;;;;5.83;5.23;;;19.60;1.00;;;;;;5069266;28;20257;-58
2021/07/01 05:31:59;;;;;;;6.57;5.97;;;19.60;1.00;;;;;;5070401;28;20196;-57
2021/07/01 05:34:25;;;;;;;5.87;5.27;;;19.80;1.00;;;;;;5070630;28;20258;-59
2021/07/01 05:36:50;;;;;;;6.93;6.10;;;19.90;1.00;;;;;;5070702;28;20175;-58
2021/07/01 05:39:16;;;;;;;6.40;5.80;;;20.10;1.00;;;;;;5070352;28;20179;-57
2021/07/01 05:41:41;;;;;;;7.50;5.53;;;20.20;1.00;;;;;;5070732;28;20258;-59
2021/07/01 05:44:07;;;;;;;6.70;6.10;;;20.30;1.00;;;;;;5070666;28;20190;-56
2021/07/01 05:46:33;;;;;;;6.80;6.10;;;20.20;1.00;;;;;;5070303;28;20218;-56
2021/07/01 05:48:58;;;;;;;7.50;6.77;;;20.30;1.00;;;;;;5070315;28;20280;-57
2021/07/01 05:51:25;;;;;;;6.87;6.17;;;20.30;1.00;;;;;;5070355;28;20686;-57
2021/07/01 05:56:21;;;;;;;7.23;6.53;;;20.30;1.00;;;;;;5070243;28;20454;-57
2021/07/01 05:58:47;;;;;;;8.13;6.50;;;20.30;1.00;;;;;;5070362;28;20524;-58
2021/07/01 06:01:12;;;;;;;6.40;5.90;;;20.40;1.00;;;;;;5069747;28;20253;-58
2021/07/01 06:03:38;;;;;;;7.70;6.90;;;20.30;1.00;;;;;;5069788;28;20233;-58
2021/07/01 06:06:13;;;;;;;6.93;6.17;;;20.20;1.00;;;;;;5070061;28;20223;-57
2021/07/01 06:08:39;;;;;;;7.40;6.80;;;20.20;1.00;;;;;;5069618;28;20561;-59
2021/07/01 06:11:07;;;;;;;6.87;6.27;;;20.20;1.00;;;;;;5069746;28;20823;-57
2021/07/01 06:13:41;;;;;;;6.90;6.30;;;20.00;1.00;;;;;;5069570;28;20976;-57
2021/07/01 06:16:11;;;;;;;6.10;5.60;;;20.00;1.00;;;;;;5069761;28;20452;-58
2021/07/01 06:18:38;;;;;;;7.47;6.77;;;20.10;1.00;;;;;;5068056;28;20530;-59
2021/07/01 06:21:04;;;;;;;7.30;6.60;;;20.10;1.00;;;;;;5069749;28;20416;-58
2021/07/01 06:23:30;;;;;;;6.73;6.13;;;20.20;1.00;;;;;;5069253;28;20466;-58
2021/07/01 06:25:58;;;;;;;8.07;7.37;;;20.20;1.00;;;;;;5069149;28;20437;-57
2021/07/01 06:28:24;;;;;;;6.73;6.13;;;20.40;1.00;;;;;;5067688;28;20544;-59
2021/07/01 06:30:50;;;;;;;6.40;5.80;;;20.50;1.00;;;;;;5069030;28;20472;-57
2021/07/01 06:33:18;;;;;;;7.50;6.80;;;20.80;1.00;;;;;;5069615;28;20790;-55
2021/07/01 06:35:52;;;;;;;7.30;5.20;;;21.00;1.00;;;;;;5069639;28;20412;-58
2021/07/01 06:38:22;;;;;;;6.47;5.87;;;21.20;1.00;;;;;;5068116;28;20769;-57
2021/07/01 06:40:49;;;;;;;6.17;5.67;;;21.40;1.00;;;;;;5069245;28;20524;-57
2021/07/01 06:43:19;;;;;;;6.43;5.90;;;21.60;1.00;;;;;;5069281;28;20504;-59
2021/07/01 06:45:47;;;;;;;6.80;6.20;;;21.60;1.00;;;;;;5067259;28;20466;-58
2021/07/01 06:48:14;;;;;;;6.43;5.83;;;21.70;1.00;;;;;;5068758;28;20446;-56
2021/07/01 06:50:40;;;;;;;6.07;5.47;;;21.30;1.00;;;;;;5066794;28;20489;-56
2021/07/01 06:53:06;;;;;;;6.70;6.10;;;21.30;1.00;;;;;;5069561;28;20437;-56
2021/07/01 06:55:32;;;;;;;6.17;5.67;;;21.20;1.00;;;;;;5069056;28;20419;-57
2021/07/01 06:57:58;;;;;;;6.47;5.80;;;21.20;1.00;;;;;;5069132;28;20209;-57
2021/07/01 07:00:24;;;;;;;6.20;5.70;;;21.30;1.00;;;;;;5068763;28;20507;-57
2021/07/01 07:02:52;;;;;;;6.43;5.93;;;21.20;1.00;;;;;;5067930;28;20197;-59
2021/07/01 07:05:19;;;;;;;5.90;5.40;;;21.30;1.00;;;;;;5069276;28;20287;-58
2021/07/01 07:07:46;;;;;;;5.40;5.00;;;21.00;1.00;;;;;;5068920;28;20444;-57
2021/07/01 07:10:14;;;;;;;6.43;5.83;;;20.90;1.00;;;;;;5068849;28;20532;-57
2021/07/01 07:12:44;;;;;;;6.10;5.50;;;20.90;1.00;;;;;;5069954;28;20420;-57
2021/07/01 07:15:16;;;;;;;5.80;5.30;;;20.60;1.00;;;;;;5069331;28;20445;-57
2021/07/01 07:17:42;;;;;;;6.80;6.20;;;20.50;1.00;;;;;;5068945;28;20412;-57
2021/07/01 07:20:08;;;;;;;6.70;6.07;;;20.50;1.00;;;;;;5067729;28;20454;-57
2021/07/01 07:22:39;;;;;;;5.87;5.37;;;20.40;1.00;;;;;;5068891;28;20505;-57
2021/07/01 07:25:07;;;;;;;6.43;5.93;;;20.50;1.00;;;;;;5069449;28;20441;-58
2021/07/01 07:27:36;;;;;;;6.20;5.70;;;20.40;1.00;;;;;;5069400;28;20907;-56
2021/07/01 07:30:02;;;;;;;6.53;5.93;;;20.60;1.00;;;;;;5068787;28;20963;-58
2021/07/01 07:32:29;;;;;;;6.97;6.17;;;20.60;1.00;;;;;;5067183;28;20441;-56
2021/07/01 07:34:55;;;;;;;6.70;6.20;;;20.80;1.00;;;;;;5069148;28;20541;-56
2021/07/01 07:37:22;;;;;;;6.80;6.27;;;20.80;1.00;;;;;;5069322;28;20932;-57
2021/07/01 07:39:49;;;;;;;7.13;6.53;;;20.70;1.00;;;;;;5070915;28;20423;-57
2021/07/01 07:42:15;;;;;;;7.20;6.60;;;20.60;1.00;;;;;;5069119;28;20451;-57
2021/07/01 07:44:42;;;;;;;7.97;7.27;;;20.70;1.00;;;;;;5072788;28;20453;-58
2021/07/01 07:47:14;;;;;;;6.87;6.27;;;20.80;1.00;;;;;;5071978;28;20460;-57
2021/07/01 07:49:41;;;;;;;7.10;6.50;;;20.90;1.00;;;;;;5072313;28;20473;-59
2021/07/01 07:52:11;;;;;;;6.67;6.07;;;21.00;1.00;;;;;;5072705;28;20416;-57
2021/07/01 07:54:52;;;;;;;7.13;6.43;;;21.00;1.00;;;;;;5072296;28;20442;-58
2021/07/01 07:57:19;;;;;;;5.80;5.30;;;20.90;1.00;;;;;;5072338;28;20414;-58
2021/07/01 07:59:50;;;;;;;6.40;5.77;;;20.90;1.00;;;;;;5072476;28;20434;-60
2021/07/01 08:02:33;;;;;;;5.73;5.33;;;21.00;1.00;;;;;;5072202;28;20469;-58
2021/07/01 08:05:00;;;;;;;5.87;5.40;;;21.10;1.00;;;;;;5072027;28;20447;-58
2021/07/01 08:07:26;;;;;;;7.80;5.00;;;21.40;1.00;;;;;;5072553;28;20794;-59
2021/07/01 08:09:52;;;;;;;5.03;4.63;;;21.70;1.00;;;;;;5071825;28;20447;-57
2021/07/01 08:12:19;;;;;;;5.37;4.97;;;21.90;1.00;;;;;;5054211;28;20449;-58
2021/07/01 08:14:45;;;;;;;6.00;5.40;;;22.10;1.00;;;;;;5072445;28;20183;-58
2021/07/01 08:17:13;;;;;;;5.40;4.90;;;22.00;1.00;;;;;;5072092;28;20904;-57
2021/07/01 08:19:39;;;;;;;4.90;4.53;;;21.90;1.00;;;;;;5069972;28;20190;-57
2021/07/01 08:22:05;;;;;;;5.67;5.17;;;22.10;1.00;;;;;;5072001;28;20821;-60
2021/07/01 08:24:30;;;;;;;7.07;5.03;;;21.90;1.00;;;;;;5072253;28;20218;-56
2021/07/01 08:26:57;;;;;;;4.90;4.43;;;21.80;1.00;;;;;;5070335;28;20198;-57
2021/07/01 08:29:23;;;;;;;5.80;5.30;;;21.80;1.00;;;;;;5072214;28;20226;-59
2021/07/01 08:31:49;;;;;;;5.87;5.33;;;21.80;1.00;;;;;;5071974;28;20417;-57
2021/07/01 08:34:19;;;;;;;5.40;4.90;;;21.60;1.00;;;;;;5071907;28;20448;-58
2021/07/01 08:36:47;;;;;;;4.70;4.30;;;21.50;1.00;;;;;;5068304;28;20187;-59
2021/07/01 08:39:12;;;;;;;7.07;5.67;;;21.70;1.00;;;;;;5067952;28;20446;-58
2021/07/01 08:41:43;;;;;;;5.33;4.93;;;21.80;1.00;;;;;;5070440;28;20775;-60
2021/07/01 08:44:17;;;;;;;5.20;4.70;;;22.00;1.00;;;;;;5070716;28;20262;-58
2021/07/01 08:46:50;;;;;;;5.13;4.73;;;22.30;1.00;;;;;;5069124;28;20427;-59
2021/07/01 08:49:31;;;;;;;6.77;5.87;;;22.30;1.00;;;;;;5069934;28;20497;-60
2021/07/01 08:52:03;;;;;;;4.20;3.90;;;22.00;1.00;;;;;;5069546;28;20433;-59
2021/07/01 08:54:35;;;;;;;4.70;4.30;;;22.10;1.00;;;;;;5070010;28;20521;-58
2021/07/01 08:57:04;;;;;;;4.40;4.00;;;22.00;1.00;;;;;;5068725;28;20650;-57
2021/07/01 08:59:55;;;;;;;3.67;3.37;;;21.80;1.00;;;;;;5070196;28;20982;-57
2021/07/01 09:02:42;;;;;;;4.17;3.20;;;21.30;1.00;;;;;;5070317;28;20750;-57
2021/07/01 09:05:13;;;;;;;3.30;3.00;;;20.90;1.00;;;;;;5069983;28;20787;-58
2021/07/01 09:07:40;;;;;;;2.60;2.40;;;20.60;1.00;;;;;;5068897;28;20415;-57
2021/07/01 09:10:11;;;;;;;3.10;2.80;;;20.30;1.00;;;;;;5068970;28;20518;-57
2021/07/01 09:12:47;;;;;;;4.47;2.67;;;20.10;1.00;;;;;;5069286;28;20412;-56
2021/07/01 09:15:13;;;;;;;2.73;2.53;;;20.20;1.00;;;;;;5068261;28;20962;-59
2021/07/01 09:17:47;;;;;;;2.87;2.67;;;20.40;1.00;;;;;;5070058;28;20464;-57
2021/07/01 09:20:18;;;;;;;2.53;2.33;;;20.70;1.00;;;;;;5070229;28;20181;-58
2021/07/01 09:22:44;;;;;;;2.80;2.53;;;20.70;1.00;;;;;;5067188;28;20419;-57
2021/07/01 09:25:11;;;;;;;2.30;2.03;;;20.80;1.00;;;;;;5063583;28;20417;-58
2021/07/01 09:27:42;;;;;;;2.67;2.30;;;21.00;1.00;;;;;;5065405;28;20192;-59
2021/07/01 09:30:08;;;;;;;1.70;1.60;;;21.20;1.00;;;;;;5063988;28;20452;-58
2021/07/01 09:32:36;;;;;;;2.73;1.40;;;21.40;1.00;;;;;;5068904;28;20438;-58
2021/07/01 09:35:03;;;;;;;4.77;1.60;;;21.50;1.00;;;;;;5066788;28;20416;-56
2021/07/01 09:37:39;;;;;;;3.00;1.30;;;21.50;1.00;;;;;;5070735;28;20497;-58
2021/07/01 09:40:06;;;;;;;1.93;1.70;;;21.70;1.00;;;;;;5062886;28;20953;-57
2021/07/01 09:42:33;;;;;;;1.60;1.50;;;21.90;1.00;;;;;;5069729;28;20449;-60
2021/07/01 09:45:05;;;;;;;1.73;1.37;;;21.90;1.00;;;;;;5070181;28;20445;-57
2021/07/01 09:47:32;;;;;;;1.70;1.60;;;22.00;1.00;;;;;;5068540;28;20445;-58
2021/07/01 09:50:02;;;;;;;1.97;1.50;;;22.30;1.00;;;;;;5068272;28;20479;-57
2021/07/01 09:52:31;;;;;;;2.20;2.00;;;22.60;1.00;;;;;;5068831;28;20424;-57
2021/07/01 09:55:00;;;;;;;1.83;1.70;;;22.50;1.00;;;;;;5069343;28;20416;-58
2021/07/01 09:57:29;;;;;;;3.03;2.20;;;22.50;1.00;;;;;;5069704;28;20414;-60
2021/07/01 10:00:08;;;;;;;3.57;1.80;;;22.40;1.00;;;;;;5067996;28;20434;-57
2021/07/01 10:02:34;;;;;;;2.33;1.70;;;22.30;1.00;;;;;;5067424;28;20448;-58
2021/07/01 10:04:59;;;;;;;1.60;1.50;;;22.20;1.00;;;;;;5068752;28;20449;-58
2021/07/01 10:07:26;;;;;;;2.17;1.60;;;21.90;1.00;;;;;;5068257;28;20788;-59
2021/07/01 10:09:55;;;;;;;1.80;1.60;;;21.70;1.00;;;;;;5068939;28;20628;-59
2021/07/01 10:12:28;;;;;;;1.67;1.57;;;21.70;1.00;;;;;;5070343;28;20412;-57
2021/07/01 10:15:02;;;;;;;2.90;1.67;;;21.90;1.00;;;;;;5068743;28;20434;-57
2021/07/01 10:17:29;;;;;;;3.77;1.70;;;22.30;1.00;;;;;;5070020;28;20511;-57
2021/07/01 10:20:09;;;;;;;1.90;1.30;;;22.80;1.00;;;;;;5070294;28;20996;-59
2021/07/01 10:22:40;;;;;;;3.40;1.73;;;22.90;1.00;;;;;;5070350;28;20440;-57
2021/07/01 10:25:07;;;;;;;1.50;1.30;;;23.00;1.00;;;;;;5069917;28;20449;-59
2021/07/01 10:27:40;;;;;;;2.80;1.50;;;23.20;1.00;;;;;;5070151;28;20452;-58
2021/07/01 10:30:18;;;;;;;1.73;1.63;;;23.00;1.00;;;;;;5070153;28;21035;-59
2021/07/01 10:32:48;;;;;;;1.87;1.40;;;22.80;1.00;;;;;;5070545;28;20415;-59
2021/07/01 10:35:24;;;;;;;1.50;1.40;;;22.80;1.00;;;;;;5068771;28;20444;-60
2021/07/01 10:38:03;;;;;;;2.03;1.20;;;22.90;1.00;;;;;;5070062;28;20433;-59
2021/07/01 10:40:30;;;;;;;2.40;1.07;;;22.90;1.00;;;;;;5070292;28;20407;-58
2021/07/01 10:42:56;;;;;;;1.77;0.90;;;22.80;1.00;;;;;;5068170;28;20421;-60
2021/07/01 10:45:24;;;;;;;1.10;1.00;;;22.50;1.00;;;;;;5069051;28;20456;-58
2021/07/01 10:47:50;;;;;;;1.30;1.20;;;22.50;1.00;;;;;;5069465;28;20922;-60
2021/07/01 10:50:19;;;;;;;1.33;0.83;;;22.60;1.00;;;;;;5069803;28;20487;-58
2021/07/01 10:52:45;;;;;;;1.37;1.00;;;22.60;1.00;;;;;;5069783;28;20957;-59
2021/07/01 10:55:12;;;;;;;0.90;0.90;;;22.80;1.00;;;;;;5069917;28;20426;-60
2021/07/01 10:57:47;;;;;;;1.10;1.00;;;22.80;1.00;;;;;;5070011;28;20453;-57
2021/07/01 11:00:13;;;;;;;1.00;0.90;;;22.80;1.00;;;;;;5069757;28;20443;-58
2021/07/01 11:02:46;;;;;;;1.10;1.00;;;22.70;1.00;;;;;;5069683;28;20956;-58
2021/07/01 11:05:12;;;;;;;1.40;1.03;;;22.80;1.00;;;;;;5069803;28;20241;-59
2021/07/01 11:07:46;;;;;;;3.77;3.47;;;23.10;1.00;;;;;;5070177;28;20902;-58
2021/07/01 11:10:31;;;;;;;1.57;1.27;;;23.40;1.00;;;;;;5069719;28;20256;-59
2021/07/01 11:13:04;;;;;;;1.40;1.30;;;23.60;1.00;;;;;;5073844;28;20478;-57
2021/07/01 11:15:29;;;;;;;2.17;1.20;;;23.40;1.00;;;;;;5074141;28;20403;-57
2021/07/01 11:18:07;;;;;;;1.70;1.50;;;22.90;1.00;;;;;;5073619;28;20481;-59
2021/07/01 11:20:33;;;;;;;3.53;1.40;;;22.80;1.00;;;;;;5073969;28;20529;-59
2021/07/01 11:23:00;;;;;;;1.50;1.40;;;23.00;1.00;;;;;;5072355;28;20425;-60
2021/07/01 11:25:27;;;;;;;1.30;1.20;;;23.30;1.00;;;;;;5073396;28;20190;-58
2021/07/01 11:28:13;;;;;;;1.23;1.13;;;23.00;1.00;;;;;;5073389;28;20780;-58
2021/07/01 11:30:55;;;;;;;3.33;1.40;;;23.00;1.00;;;;;;5073247;28;20586;-58
2021/07/01 11:33:21;;;;;;;1.60;1.50;;;23.10;1.00;;;;;;5073282;28;20440;-58
2021/07/01 11:35:49;;;;;;;2.10;1.60;;;23.10;1.00;;;;;;5073129;28;20919;-58
2021/07/01 11:38:30;;;;;;;1.20;1.10;;;23.30;1.00;;;;;;5071580;28;20469;-59
2021/07/01 11:40:56;;;;;;;2.27;1.50;;;23.40;1.00;;;;;;5072826;28;20437;-59
2021/07/01 11:43:23;;;;;;;2.90;1.47;;;23.60;1.00;;;;;;5072845;28;20434;-58
2021/07/01 11:45:51;;;;;;;1.47;1.33;;;23.50;1.00;;;;;;5073044;28;20433;-58
2021/07/01 11:48:20;;;;;;;3.20;1.70;;;23.10;1.00;;;;;;5071432;28;20437;-59
2021/07/01 11:50:48;;;;;;;2.40;2.17;;;23.00;1.00;;;;;;5072873;28;20443;-59
2021/07/01 11:53:15;;;;;;;2.17;1.30;;;23.10;1.00;;;;;;5073026;28;20460;-58
2021/07/01 11:55:41;;;;;;;2.47;1.53;;;23.20;1.00;;;;;;5068955;28;20426;-59
2021/07/01 11:58:09;;;;;;;2.33;2.13;;;23.00;1.00;;;;;;5072862;28;20451;-59
2021/07/01 12:00:34;;;;;;;2.57;1.40;;;23.00;1.00;;;;;;5073224;28;20271;-58
2021/07/01 12:03:03;;;;;;;1.67;1.40;;;23.30;1.00;;;;;;5071663;28;20520;-59
2021/07/01 12:05:28;;;;;;;1.50;1.40;;;23.70;1.00;;;;;;5071459;28;20221;-59
2021/07/01 12:07:54;;;;;;;2.27;1.67;;;23.90;1.00;;;;;;5054923;28;20462;-60
2021/07/01 12:10:20;;;;;;;1.70;1.60;;;23.80;1.00;;;;;;5072503;28;20216;-61
2021/07/01 12:12:46;;;;;;;1.83;1.73;;;23.60;1.00;;;;;;5068969;28;20434;-58
2021/07/01 12:15:14;;;;;;;2.70;1.93;;;23.50;1.00;;;;;;5072578;28;20431;-59
2021/07/01 12:17:52;;;;;;;2.17;1.90;;;23.50;1.00;;;;;;5071240;28;20328;-58
2021/07/01 12:20:50;;;;;;;3.10;1.90;;;23.40;1.00;;;;;;5072511;28;20529;-58
2021/07/01 12:23:16;;;;;;;1.57;1.47;;;23.20;1.00;;;;;;5069738;28;20962;-58
2021/07/01 12:25:46;;;;;;;1.80;1.70;;;23.10;1.00;;;;;;5073062;28;20436;-59
2021/07/01 12:28:24;;;;;;;1.90;1.60;;;23.10;1.00;;;;;;5071215;28;20861;-59
2021/07/01 12:30:56;;;;;;;2.03;1.73;;;23.20;1.00;;;;;;5072009;28;20502;-59
2021/07/01 12:33:58;;;;;;;1.70;1.50;;;23.40;1.00;;;;;;5072401;28;20403;-59
2021/07/01 12:36:33;;;;;;;1.93;1.40;;;23.60;1.00;;;;;;5070825;28;20832;-59
2021/07/01 12:39:08;;;;;;;2.20;1.53;;;23.80;1.00;;;;;;5072526;28;20871;-58
2021/07/01 12:41:36;;;;;;;2.00;1.30;;;24.00;1.00;;;;;;5071794;28;20426;-60
2021/07/01 12:44:25;;;;;;;3.63;1.57;;;23.70;1.00;;;;;;5071190;28;20419;-58
2021/07/01 12:46:50;;;;;;;1.70;1.60;;;23.40;1.00;;;;;;5061197;28;20416;-58
2021/07/01 12:49:23;;;;;;;2.20;1.33;;;23.00;1.00;;;;;;5072132;28;21047;-57
2021/07/01 12:52:02;;;;;;;3.30;1.87;;;23.30;1.00;;;;;;5072204;28;20259;-59
2021/07/01 12:54:31;;;;;;;1.90;1.60;;;23.80;1.00;;;;;;5072108;28;20757;-59
2021/07/01 12:56:57;;;;;;;1.70;1.60;;;24.10;1.00;;;;;;5071853;28;20434;-59
2021/07/01 12:59:24;;;;;;;1.77;1.67;;;23.80;1.00;;;;;;5071861;28;20500;-59
2021/07/01 13:01:50;;;;;;;1.60;1.50;;;23.60;1.00;;;;;;5071770;28;20198;-59
2021/07/01 13:04:23;;;;;;;2.40;2.20;;;23.60;1.00;;;;;;5071925;28;20431;-59